Time;durP1;ratioP1;P1;durP2;ratioP2;P2;SDS_P1;SDS_P2;PMS_P1;PMS_P2;Temp;Humidity;BMP_temperature;BMP_pressure;BME280_temperature;BME280_humidity;BME280_pressure;Samples;Min_cycle;Max_cycle;Signal;HPM_P1;HPM_P2
2023/11/26 00:01:42;;;;;;;4.60;2.70;;;2.90;99.90;;;;;;4953504;29;20263;-75
2023/11/26 00:04:11;;;;;;;4.10;3.53;;;2.90;99.90;;;;;;4951141;29;20604;-75
2023/11/26 00:06:42;;;;;;;2.80;2.53;;;2.90;99.90;;;;;;4952454;28;20628;-75
2023/11/26 00:09:07;;;;;;;4.50;2.60;;;2.80;99.90;;;;;;4952613;28;20487;-75
2023/11/26 00:11:33;;;;;;;2.63;2.40;;;2.80;99.90;;;;;;4953267;29;20455;-74
2023/11/26 00:13:58;;;;;;;9.13;2.97;;;2.80;99.90;;;;;;4968275;28;20184;-74
2023/11/26 00:16:25;;;;;;;8.90;3.30;;;2.70;99.90;;;;;;4953259;29;20180;-74
2023/11/26 00:18:50;;;;;;;3.20;2.57;;;2.70;99.90;;;;;;4952645;28;20315;-74
2023/11/26 00:21:17;;;;;;;4.53;3.43;;;2.60;99.90;;;;;;4952403;29;20546;-74
2023/11/26 00:23:42;;;;;;;3.33;3.00;;;2.50;99.90;;;;;;4952563;28;20189;-74
2023/11/26 00:26:08;;;;;;;6.00;3.73;;;2.50;99.90;;;;;;4951801;29;20446;-75
2023/11/26 00:28:33;;;;;;;5.43;3.37;;;2.50;99.90;;;;;;4953307;28;20204;-75
2023/11/26 00:30:59;;;;;;;4.17;3.67;;;2.40;99.90;;;;;;4955603;29;20664;-75
2023/11/26 00:33:24;;;;;;;6.53;3.37;;;2.30;99.90;;;;;;4955896;29;20185;-75
2023/11/26 00:35:50;;;;;;;3.80;3.40;;;2.30;99.90;;;;;;4955846;29;20184;-75
2023/11/26 00:38:16;;;;;;;7.10;3.30;;;2.30;99.90;;;;;;4955535;29;20664;-75
2023/11/26 00:40:43;;;;;;;6.80;4.10;;;2.30;99.90;;;;;;4956156;28;20734;-75
2023/11/26 00:43:09;;;;;;;6.53;3.77;;;2.20;99.90;;;;;;4955286;28;20440;-75
2023/11/26 00:45:34;;;;;;;9.57;3.30;;;2.20;99.90;;;;;;4954085;28;20448;-75
2023/11/26 00:48:00;;;;;;;6.53;3.37;;;2.20;99.90;;;;;;4955380;29;20456;-75
2023/11/26 00:50:25;;;;;;;6.47;3.13;;;2.10;99.90;;;;;;4956080;29;20220;-75
2023/11/26 00:52:51;;;;;;;6.37;3.70;;;2.20;99.90;;;;;;4955538;29;20196;-75
2023/11/26 00:55:17;;;;;;;4.20;3.40;;;2.20;99.90;;;;;;4955567;29;20179;-75
2023/11/26 00:57:42;;;;;;;5.57;4.30;;;2.20;99.90;;;;;;4954704;29;20898;-75
2023/11/26 01:00:11;;;;;;;4.20;3.80;;;2.20;99.90;;;;;;4956050;28;20579;-75
2023/11/26 01:02:36;;;;;;;4.73;3.37;;;2.20;99.90;;;;;;4956091;28;20213;-74
2023/11/26 01:05:03;;;;;;;6.77;3.37;;;2.20;99.90;;;;;;4954594;29;20468;-75
2023/11/26 01:07:30;;;;;;;4.40;3.37;;;2.20;99.90;;;;;;4953942;28;20581;-75
2023/11/26 01:09:59;;;;;;;6.50;3.97;;;2.20;99.90;;;;;;4955738;28;20544;-75
2023/11/26 01:12:25;;;;;;;4.20;3.80;;;2.10;99.90;;;;;;4956052;28;20821;-75
2023/11/26 01:14:51;;;;;;;3.90;3.30;;;2.10;99.90;;;;;;4956043;28;20507;-74
2023/11/26 01:17:17;;;;;;;6.33;3.63;;;2.10;99.90;;;;;;4954472;28;20216;-75
2023/11/26 01:19:43;;;;;;;3.87;3.43;;;2.20;99.90;;;;;;4955108;28;20535;-75
2023/11/26 01:22:08;;;;;;;6.73;3.73;;;2.20;99.90;;;;;;4954731;29;20180;-75
2023/11/26 01:24:34;;;;;;;7.03;3.83;;;2.20;99.90;;;;;;4955468;29;20299;-74
2023/11/26 01:26:59;;;;;;;7.00;4.47;;;2.30;99.90;;;;;;4952978;28;20208;-72
2023/11/26 01:29:25;;;;;;;9.03;4.10;;;2.40;99.90;;;;;;4955553;28;20618;-72
2023/11/26 01:31:50;;;;;;;5.50;4.30;;;2.50;99.90;;;;;;4954808;28;20621;-73
2023/11/26 01:34:16;;;;;;;7.87;4.00;;;2.40;99.90;;;;;;4947547;29;20223;-73
2023/11/26 01:36:41;;;;;;;6.10;4.10;;;2.50;99.90;;;;;;4954667;29;20766;-75
2023/11/26 01:39:07;;;;;;;4.60;3.30;;;2.60;99.90;;;;;;4953778;28;20170;-75
2023/11/26 01:41:33;;;;;;;4.60;3.60;;;2.60;99.90;;;;;;4955729;28;20674;-73
2023/11/26 01:43:59;;;;;;;3.70;2.90;;;2.60;99.90;;;;;;4955476;28;20506;-73
2023/11/26 01:46:25;;;;;;;3.63;3.30;;;2.60;99.90;;;;;;4955155;28;20509;-73
2023/11/26 01:48:51;;;;;;;4.57;3.53;;;2.50;99.90;;;;;;4952651;28;20289;-73
2023/11/26 01:51:20;;;;;;;8.13;3.17;;;2.50;99.90;;;;;;4954405;29;20448;-73
2023/11/26 01:53:48;;;;;;;4.80;3.00;;;2.50;99.90;;;;;;4950692;29;20165;-73
2023/11/26 01:56:15;;;;;;;6.03;2.97;;;2.50;99.90;;;;;;4954926;28;20479;-73
2023/11/26 01:58:41;;;;;;;2.73;2.53;;;2.40;99.90;;;;;;4954292;28;20932;-75
2023/11/26 02:01:06;;;;;;;4.67;2.87;;;2.40;99.90;;;;;;4954688;28;20503;-75
2023/11/26 02:03:32;;;;;;;6.20;2.20;;;2.30;99.90;;;;;;4953794;28;20628;-75
2023/11/26 02:05:58;;;;;;;3.70;2.97;;;2.30;99.90;;;;;;4954309;29;20273;-75
2023/11/26 02:08:24;;;;;;;3.83;2.63;;;2.30;99.90;;;;;;4952117;29;20208;-75
2023/11/26 02:10:50;;;;;;;3.00;2.40;;;2.20;99.90;;;;;;4953721;29;20211;-75
2023/11/26 02:13:15;;;;;;;4.17;2.73;;;2.20;99.90;;;;;;4954950;29;20787;-75
2023/11/26 02:15:41;;;;;;;5.07;2.70;;;2.10;99.90;;;;;;4954688;28;20196;-75
2023/11/26 02:18:07;;;;;;;3.80;2.60;;;2.10;99.90;;;;;;4953877;28;20249;-75
2023/11/26 02:20:32;;;;;;;5.03;2.73;;;2.00;99.90;;;;;;4949005;28;20206;-75
2023/11/26 02:22:58;;;;;;;2.37;2.17;;;2.00;99.90;;;;;;4951198;29;20185;-75
2023/11/26 02:25:29;;;;;;;8.63;2.90;;;2.00;99.90;;;;;;4953177;29;20201;-75
2023/11/26 02:27:56;;;;;;;4.93;2.70;;;1.90;99.90;;;;;;4953733;28;20204;-75
2023/11/26 02:30:21;;;;;;;5.00;2.93;;;1.90;99.90;;;;;;4952969;28;20456;-74
2023/11/26 02:32:47;;;;;;;3.30;3.00;;;1.90;99.90;;;;;;4954520;29;20781;-75
2023/11/26 02:35:13;;;;;;;3.40;2.67;;;1.80;99.90;;;;;;4953865;28;20209;-75
2023/11/26 02:37:39;;;;;;;3.83;2.23;;;1.70;99.90;;;;;;4954040;28;20448;-75
2023/11/26 02:40:05;;;;;;;4.97;2.53;;;1.70;99.90;;;;;;4952877;29;20295;-75
2023/11/26 02:42:32;;;;;;;9.03;2.30;;;1.70;99.90;;;;;;4954471;28;20659;-75
2023/11/26 02:44:59;;;;;;;3.80;2.23;;;1.70;99.90;;;;;;4954325;28;20439;-75
2023/11/26 02:47:26;;;;;;;4.50;2.37;;;1.70;99.90;;;;;;4953224;28;20473;-75
2023/11/26 02:49:52;;;;;;;4.70;2.23;;;1.70;99.90;;;;;;4952859;28;20459;-75
2023/11/26 02:52:18;;;;;;;3.87;3.40;;;1.80;99.90;;;;;;4952794;28;20436;-74
2023/11/26 02:54:44;;;;;;;4.17;2.30;;;1.90;99.90;;;;;;4954018;28;20507;-74
2023/11/26 02:57:10;;;;;;;6.30;2.80;;;1.90;99.90;;;;;;4953830;29;20530;-75
2023/11/26 02:59:35;;;;;;;5.50;2.80;;;1.90;99.90;;;;;;4954010;29;20476;-75
2023/11/26 03:02:02;;;;;;;4.57;3.00;;;2.00;99.90;;;;;;4952959;29;20240;-74
2023/11/26 03:04:27;;;;;;;5.33;2.60;;;2.10;99.90;;;;;;4945420;28;20563;-74
2023/11/26 03:06:53;;;;;;;4.70;2.97;;;2.10;99.90;;;;;;4952900;28;20448;-74
2023/11/26 03:09:37;;;;;;;3.90;3.10;;;2.10;99.90;;;;;;4953528;28;20185;-74
2023/11/26 03:14:53;;;;;;;8.57;3.23;;;2.10;99.90;;;;;;4953682;29;20528;-74
2023/11/26 03:17:18;;;;;;;7.20;2.87;;;2.10;99.90;;;;;;4952857;28;20463;-74
2023/11/26 03:19:47;;;;;;;4.50;3.50;;;2.10;99.90;;;;;;4952507;28;20555;-74
2023/11/26 03:22:13;;;;;;;5.60;2.70;;;2.00;99.90;;;;;;4952385;29;20207;-74
2023/11/26 03:24:39;;;;;;;3.70;2.60;;;2.00;99.90;;;;;;4953013;29;20443;-74
2023/11/26 03:27:04;;;;;;;3.87;2.87;;;1.90;99.90;;;;;;4953093;29;20467;-74
2023/11/26 03:29:30;;;;;;;3.90;3.40;;;1.80;99.90;;;;;;4952722;29;20208;-74
2023/11/26 03:31:56;;;;;;;3.30;2.90;;;1.80;99.90;;;;;;4951847;29;20197;-74
2023/11/26 03:34:23;;;;;;;4.23;2.90;;;1.80;99.90;;;;;;4953016;28;20185;-74
2023/11/26 03:36:49;;;;;;;3.10;2.80;;;1.70;99.90;;;;;;4952745;28;20440;-74
2023/11/26 03:39:18;;;;;;;4.63;3.07;;;1.60;99.90;;;;;;4953453;28;20515;-74
2023/11/26 03:41:43;;;;;;;7.23;3.13;;;1.50;99.90;;;;;;4953730;28;20185;-74
2023/11/26 03:44:09;;;;;;;5.50;2.93;;;1.40;99.90;;;;;;4953131;28;21074;-74
2023/11/26 03:46:35;;;;;;;3.83;3.20;;;1.40;99.90;;;;;;4953405;28;20703;-74
2023/11/26 03:49:01;;;;;;;5.50;3.60;;;1.40;99.90;;;;;;4952409;28;20196;-74
2023/11/26 03:51:28;;;;;;;3.03;2.73;;;1.40;99.90;;;;;;4952292;29;20428;-73
2023/11/26 03:53:54;;;;;;;4.57;3.87;;;1.40;99.90;;;;;;4951322;28;20660;-74
2023/11/26 03:56:20;;;;;;;5.37;3.90;;;1.50;99.90;;;;;;4953458;29;20435;-74
2023/11/26 03:58:45;;;;;;;3.70;2.83;;;1.50;99.90;;;;;;4952737;29;20185;-74
2023/11/26 04:01:11;;;;;;;4.43;2.50;;;1.60;99.90;;;;;;4952705;28;20444;-74
2023/11/26 04:03:37;;;;;;;4.10;2.23;;;1.70;99.90;;;;;;4955521;28;20664;-74
2023/11/26 04:06:03;;;;;;;5.50;2.17;;;1.70;99.90;;;;;;4956641;28;20463;-73
2023/11/26 04:08:29;;;;;;;2.90;2.70;;;1.70;99.90;;;;;;4955894;28;20884;-74
2023/11/26 04:10:55;;;;;;;3.00;2.67;;;1.80;99.90;;;;;;4957096;28;20587;-74
2023/11/26 04:13:22;;;;;;;4.20;2.80;;;1.90;99.90;;;;;;4955145;29;20191;-74
2023/11/26 04:15:54;;;;;;;3.00;2.23;;;1.90;99.90;;;;;;4957006;28;20524;-74
2023/11/26 04:18:21;;;;;;;5.53;2.87;;;1.90;99.90;;;;;;4952801;29;20444;-74
2023/11/26 04:20:47;;;;;;;4.23;2.27;;;1.90;99.90;;;;;;4956102;28;20468;-74
2023/11/26 04:23:18;;;;;;;2.93;2.47;;;1.90;99.90;;;;;;4955839;28;20451;-74
2023/11/26 04:25:44;;;;;;;3.23;2.47;;;1.90;99.90;;;;;;4955982;28;20463;-74
2023/11/26 04:28:09;;;;;;;2.93;2.37;;;2.00;99.90;;;;;;4955638;28;21146;-74
2023/11/26 04:30:35;;;;;;;5.13;2.13;;;2.10;99.90;;;;;;4956381;29;20448;-74
2023/11/26 04:33:00;;;;;;;3.20;2.03;;;2.10;99.90;;;;;;4955773;29;20189;-74
2023/11/26 04:35:26;;;;;;;6.37;2.80;;;2.10;99.90;;;;;;4953372;29;20188;-74
2023/11/26 04:37:51;;;;;;;4.03;2.57;;;2.10;99.90;;;;;;4954771;28;20193;-74
2023/11/26 04:40:17;;;;;;;2.67;2.20;;;2.10;99.90;;;;;;4955583;29;20223;-74
2023/11/26 04:42:43;;;;;;;2.77;2.00;;;2.10;99.90;;;;;;4956427;28;20181;-74
2023/11/26 04:45:09;;;;;;;3.83;2.70;;;2.20;99.90;;;;;;4955867;29;20795;-74
2023/11/26 04:47:37;;;;;;;6.50;3.43;;;2.20;99.90;;;;;;4955328;28;20201;-74
2023/11/26 04:50:04;;;;;;;7.23;2.73;;;2.30;99.90;;;;;;4956112;29;20507;-74
2023/11/26 04:52:31;;;;;;;6.10;3.10;;;2.30;99.90;;;;;;4955026;28;20432;-74
2023/11/26 04:54:57;;;;;;;2.83;2.60;;;2.30;99.90;;;;;;4954471;28;20451;-74
2023/11/26 04:57:22;;;;;;;5.00;2.73;;;2.30;99.90;;;;;;4954513;29;20441;-74
2023/11/26 04:59:48;;;;;;;3.47;2.33;;;2.40;99.90;;;;;;4956123;29;20264;-74
2023/11/26 05:02:14;;;;;;;3.07;1.97;;;2.40;99.90;;;;;;4955445;29;20192;-74
2023/11/26 05:04:40;;;;;;;2.93;2.17;;;2.40;99.90;;;;;;4956036;28;20636;-74
2023/11/26 05:07:06;;;;;;;4.53;2.53;;;2.40;99.90;;;;;;4954952;28;20555;-73
2023/11/26 05:09:32;;;;;;;7.53;2.97;;;2.40;99.90;;;;;;4956066;28;20487;-73
2023/11/26 05:11:59;;;;;;;2.77;2.57;;;2.40;99.90;;;;;;4956113;28;20588;-74
2023/11/26 05:14:25;;;;;;;2.27;2.00;;;2.40;99.90;;;;;;4954682;28;20446;-74
2023/11/26 05:16:50;;;;;;;5.47;2.83;;;2.40;99.90;;;;;;4952838;28;20519;-74
2023/11/26 05:19:16;;;;;;;3.00;1.93;;;2.40;99.90;;;;;;4955702;29;20173;-74
2023/11/26 05:21:42;;;;;;;3.30;2.60;;;2.40;99.90;;;;;;4955127;29;20617;-74
2023/11/26 05:24:08;;;;;;;1.70;1.60;;;2.40;99.90;;;;;;4955882;28;20653;-73
2023/11/26 05:26:34;;;;;;;9.47;2.30;;;2.40;99.90;;;;;;4953468;28;20456;-74
2023/11/26 05:28:59;;;;;;;2.10;1.70;;;2.40;99.90;;;;;;4955716;28;20300;-74
2023/11/26 05:31:25;;;;;;;3.33;2.40;;;2.40;99.90;;;;;;4955219;29;20523;-74
2023/11/26 05:33:51;;;;;;;2.83;2.27;;;2.40;99.90;;;;;;4955598;29;20177;-74
2023/11/26 05:36:18;;;;;;;6.33;2.30;;;2.40;99.90;;;;;;4954146;28;20181;-74
2023/11/26 05:38:43;;;;;;;5.87;1.90;;;2.50;99.90;;;;;;4953961;29;20448;-74
2023/11/26 05:41:09;;;;;;;6.73;2.07;;;2.50;99.90;;;;;;4955278;29;20854;-74
2023/11/26 05:43:35;;;;;;;2.40;2.10;;;2.50;99.90;;;;;;4955619;28;20176;-74
2023/11/26 05:46:00;;;;;;;2.07;1.60;;;2.60;99.90;;;;;;4954069;29;20207;-74
2023/11/26 05:48:26;;;;;;;1.70;1.33;;;2.60;99.90;;;;;;4954149;28;20267;-73
2023/11/26 05:50:51;;;;;;;11.50;1.73;;;2.60;99.90;;;;;;4954874;29;20207;-73
2023/11/26 05:53:18;;;;;;;1.90;1.60;;;2.60;99.90;;;;;;4955362;28;20187;-74
2023/11/26 05:55:43;;;;;;;2.70;1.90;;;2.60;99.90;;;;;;4955293;28;20177;-74
2023/11/26 05:58:09;;;;;;;2.20;1.40;;;2.60;99.90;;;;;;4952782;28;20452;-74
2023/11/26 06:00:34;;;;;;;1.80;1.43;;;2.60;99.90;;;;;;4954305;29;20549;-74
2023/11/26 06:03:00;;;;;;;2.03;1.80;;;2.60;99.90;;;;;;4954955;29;20208;-74
2023/11/26 06:05:25;;;;;;;4.30;1.67;;;2.60;99.90;;;;;;4954847;29;20225;-73
2023/11/26 06:07:51;;;;;;;4.63;1.63;;;2.50;99.90;;;;;;4954011;29;20213;-74
2023/11/26 06:10:16;;;;;;;1.73;1.60;;;2.50;99.90;;;;;;4954822;29;20565;-74
2023/11/26 06:12:42;;;;;;;2.53;1.83;;;2.40;99.90;;;;;;4954291;29;20185;-73
2023/11/26 06:15:08;;;;;;;3.03;1.93;;;2.30;99.90;;;;;;4955026;28;20722;-74
2023/11/26 06:17:34;;;;;;;2.90;2.30;;;2.30;99.90;;;;;;4953235;28;20623;-74
2023/11/26 06:20:00;;;;;;;6.10;2.00;;;2.30;99.90;;;;;;4952921;28;20551;-73
2023/11/26 06:22:25;;;;;;;2.80;2.13;;;2.30;99.90;;;;;;4954949;28;20519;-74
2023/11/26 06:24:51;;;;;;;1.70;1.60;;;2.30;99.90;;;;;;4954823;29;20605;-74
2023/11/26 06:27:17;;;;;;;3.33;1.70;;;2.30;99.90;;;;;;4952482;28;20203;-74
2023/11/26 06:29:42;;;;;;;3.83;3.07;;;2.40;99.90;;;;;;4953745;29;20496;-73
2023/11/26 06:32:08;;;;;;;2.60;2.40;;;2.40;99.90;;;;;;4953361;29;20181;-73
2023/11/26 06:34:33;;;;;;;6.93;3.30;;;2.40;99.90;;;;;;4953544;29;20594;-74
2023/11/26 06:37:00;;;;;;;5.57;2.57;;;2.40;99.90;;;;;;4953106;29;20192;-74
2023/11/26 06:39:27;;;;;;;2.03;1.70;;;2.40;99.90;;;;;;4950833;28;20603;-74
2023/11/26 06:41:53;;;;;;;2.37;2.17;;;2.40;99.90;;;;;;4953765;28;20460;-74
2023/11/26 06:44:18;;;;;;;7.50;1.93;;;2.40;99.90;;;;;;4954340;29;20778;-74
2023/11/26 06:46:44;;;;;;;3.07;2.00;;;2.40;99.90;;;;;;4952980;29;20181;-74
2023/11/26 06:49:10;;;;;;;2.70;2.00;;;2.40;99.90;;;;;;4953980;29;20236;-74
2023/11/26 06:51:35;;;;;;;1.77;1.67;;;2.40;99.90;;;;;;4953347;29;20199;-73
2023/11/26 06:54:01;;;;;;;2.47;1.87;;;2.50;99.90;;;;;;4954257;29;20424;-74
2023/11/26 06:56:27;;;;;;;2.30;2.00;;;2.50;99.90;;;;;;4954048;28;20641;-74
2023/11/26 06:58:52;;;;;;;3.00;2.70;;;2.50;99.90;;;;;;4953448;28;20428;-74
2023/11/26 07:01:18;;;;;;;2.73;2.50;;;2.50;99.90;;;;;;4950267;29;20583;-74
2023/11/26 07:03:44;;;;;;;3.97;2.23;;;2.50;99.90;;;;;;4953793;29;20192;-73
2023/11/26 07:06:11;;;;;;;2.50;2.33;;;2.40;99.90;;;;;;4953761;28;20504;-74
2023/11/26 07:08:38;;;;;;;2.90;2.60;;;2.50;99.90;;;;;;4953643;28;20498;-73
2023/11/26 07:11:17;;;;;;;2.30;2.03;;;2.50;99.90;;;;;;4952565;28;20551;-73
2023/11/26 07:13:43;;;;;;;4.80;3.20;;;2.50;99.90;;;;;;4953796;28;20451;-74
2023/11/26 07:16:09;;;;;;;3.83;2.83;;;2.50;99.90;;;;;;4953160;28;20432;-74
2023/11/26 07:18:34;;;;;;;5.87;2.90;;;2.50;99.90;;;;;;4953509;28;20524;-73
2023/11/26 07:21:00;;;;;;;3.10;2.80;;;2.50;99.90;;;;;;4952224;29;20204;-73
2023/11/26 07:23:25;;;;;;;5.00;2.57;;;2.50;99.90;;;;;;4953665;29;20192;-74
2023/11/26 07:25:51;;;;;;;5.60;3.10;;;2.50;99.90;;;;;;4953122;29;20193;-74
2023/11/26 07:28:17;;;;;;;3.00;2.33;;;2.60;99.90;;;;;;4953340;28;20344;-74
2023/11/26 07:30:43;;;;;;;3.33;2.70;;;2.60;99.90;;;;;;4952287;29;20456;-74
2023/11/26 07:33:09;;;;;;;4.43;2.70;;;2.60;99.90;;;;;;4953268;28;20184;-74
2023/11/26 07:35:35;;;;;;;5.40;2.63;;;2.60;99.90;;;;;;4953676;28;20439;-74
2023/11/26 07:38:04;;;;;;;2.43;2.23;;;2.70;99.90;;;;;;4955148;28;20188;-74
2023/11/26 07:40:33;;;;;;;3.60;3.30;;;2.70;99.90;;;;;;4956020;28;20255;-73
2023/11/26 07:42:59;;;;;;;4.50;3.30;;;2.80;99.90;;;;;;4956115;28;20444;-73
2023/11/26 07:45:25;;;;;;;2.53;2.33;;;2.80;99.90;;;;;;4952830;28;20441;-74
2023/11/26 07:47:51;;;;;;;6.27;3.03;;;2.80;99.90;;;;;;4952527;29;20215;-73
2023/11/26 07:50:16;;;;;;;6.47;2.90;;;2.80;99.90;;;;;;4955973;29;20456;-73
2023/11/26 07:52:42;;;;;;;6.00;3.20;;;2.80;99.90;;;;;;4956648;29;20189;-74
2023/11/26 07:55:08;;;;;;;4.50;2.97;;;2.90;99.90;;;;;;4957379;29;20208;-73
2023/11/26 07:57:35;;;;;;;2.73;2.50;;;3.00;99.90;;;;;;4957030;28;20173;-74
2023/11/26 08:00:02;;;;;;;3.90;3.07;;;3.00;99.90;;;;;;4955660;28;20985;-73
2023/11/26 08:02:29;;;;;;;4.73;3.23;;;3.10;99.90;;;;;;4955988;28;20443;-73
2023/11/26 08:04:55;;;;;;;3.33;2.97;;;3.10;99.90;;;;;;4956810;28;20424;-73
2023/11/26 08:07:25;;;;;;;6.00;3.47;;;3.20;99.90;;;;;;4956801;28;20487;-73
2023/11/26 08:09:51;;;;;;;3.87;3.50;;;3.30;99.90;;;;;;4956883;28;20440;-73
2023/11/26 08:12:20;;;;;;;4.40;3.97;;;3.40;99.90;;;;;;4956354;28;20487;-73
2023/11/26 08:14:53;;;;;;;4.20;3.67;;;3.50;99.90;;;;;;4956190;28;20432;-73
2023/11/26 08:17:19;;;;;;;5.57;4.50;;;3.60;99.90;;;;;;4968593;28;20433;-74
2023/11/26 08:19:47;;;;;;;7.53;4.60;;;3.70;99.90;;;;;;4956858;28;20447;-73
2023/11/26 08:22:13;;;;;;;18.20;5.13;;;3.60;99.90;;;;;;4955386;28;20511;-73
2023/11/26 08:24:42;;;;;;;8.33;4.53;;;3.60;99.90;;;;;;4955791;28;20436;-73
2023/11/26 08:27:09;;;;;;;4.53;3.60;;;3.60;99.90;;;;;;4956154;28;20243;-73
2023/11/26 08:29:35;;;;;;;5.47;3.63;;;3.50;99.90;;;;;;4941925;29;20916;-73
2023/11/26 08:32:03;;;;;;;8.23;4.87;;;3.40;99.90;;;;;;4955753;28;21994;-74
2023/11/26 08:34:34;;;;;;;6.50;4.40;;;3.30;99.90;;;;;;4956226;28;20802;-74
2023/11/26 08:37:05;;;;;;;8.20;4.20;;;3.30;99.90;;;;;;4955844;28;20562;-75
2023/11/26 08:39:33;;;;;;;7.90;4.30;;;3.40;99.90;;;;;;4954792;29;21077;-73
2023/11/26 08:41:59;;;;;;;3.93;3.63;;;3.50;99.90;;;;;;4956315;28;20440;-74
2023/11/26 08:44:24;;;;;;;9.80;4.80;;;3.40;99.90;;;;;;4954355;28;20475;-74
2023/11/26 08:46:50;;;;;;;6.00;4.77;;;3.40;99.90;;;;;;4955751;29;20648;-74
2023/11/26 08:49:20;;;;;;;7.13;5.53;;;3.50;99.90;;;;;;4954794;28;20181;-75
2023/11/26 08:51:46;;;;;;;9.60;5.37;;;3.60;99.90;;;;;;4956455;28;20173;-72
2023/11/26 08:54:12;;;;;;;8.93;5.73;;;3.60;99.90;;;;;;4956498;28;20424;-72
2023/11/26 08:56:38;;;;;;;11.13;6.20;;;3.80;99.90;;;;;;4956107;28;20456;-71
2023/11/26 08:59:04;;;;;;;6.27;5.17;;;3.90;99.90;;;;;;4954325;28;20193;-71
2023/11/26 09:01:30;;;;;;;6.07;5.47;;;4.00;99.90;;;;;;4957677;28;20444;-71
2023/11/26 09:03:56;;;;;;;5.73;5.13;;;4.10;99.90;;;;;;4954664;28;20216;-71
2023/11/26 09:06:21;;;;;;;7.87;5.47;;;4.40;99.90;;;;;;4954115;28;20994;-74
2023/11/26 09:08:50;;;;;;;6.33;3.70;;;4.80;99.90;;;;;;4954599;28;20468;-72
2023/11/26 09:11:16;;;;;;;5.97;4.63;;;5.10;99.90;;;;;;4954661;28;20196;-72
2023/11/26 09:13:42;;;;;;;4.23;3.83;;;5.90;99.90;;;;;;4955303;28;20813;-72
2023/11/26 09:16:07;;;;;;;6.27;5.10;;;7.10;99.90;;;;;;4954041;29;20436;-73
2023/11/26 09:18:37;;;;;;;3.47;3.17;;;8.90;99.90;;;;;;4954902;29;20177;-72
2023/11/26 09:21:03;;;;;;;7.37;3.83;;;9.80;99.90;;;;;;4954939;28;20283;-72
2023/11/26 09:23:29;;;;;;;5.07;4.53;;;11.20;99.90;;;;;;4966676;28;20860;-72
2023/11/26 09:25:55;;;;;;;6.97;4.50;;;12.10;99.90;;;;;;4975212;28;20419;-72
2023/11/26 09:28:20;;;;;;;3.93;3.63;;;13.00;99.90;;;;;;4974773;28;20815;-72
2023/11/26 09:30:46;;;;;;;3.50;3.20;;;12.90;99.90;;;;;;4975032;28;20711;-73
2023/11/26 09:33:11;;;;;;;4.23;3.23;;;13.70;99.90;;;;;;4975037;28;20200;-73
2023/11/26 09:35:37;;;;;;;4.50;4.20;;;14.00;99.90;;;;;;4956541;28;20208;-72
2023/11/26 09:38:03;;;;;;;4.27;3.40;;;14.20;99.90;;;;;;4955477;28;20177;-72
2023/11/26 09:40:28;;;;;;;6.20;3.50;;;13.40;99.90;;;;;;4966114;28;20203;-72
2023/11/26 09:42:56;;;;;;;5.00;3.10;;;13.10;99.90;;;;;;4974808;28;20827;-72
2023/11/26 09:45:21;;;;;;;5.43;3.43;;;12.50;99.90;;;;;;4974877;28;20549;-72
2023/11/26 09:47:48;;;;;;;4.63;3.37;;;11.90;99.90;;;;;;4973887;28;20459;-72
2023/11/26 09:50:14;;;;;;;4.63;3.30;;;10.20;99.90;;;;;;4955083;28;20332;-72
2023/11/26 09:52:41;;;;;;;3.90;3.27;;;9.40;99.90;;;;;;4955292;28;20499;-72
2023/11/26 09:55:07;;;;;;;5.00;3.90;;;9.30;99.90;;;;;;4955308;28;20424;-72
2023/11/26 09:57:33;;;;;;;3.83;3.47;;;9.00;99.90;;;;;;4966211;28;20431;-71
2023/11/26 10:00:01;;;;;;;6.37;3.83;;;8.60;99.90;;;;;;4974236;28;20513;-71
2023/11/26 10:02:26;;;;;;;5.07;4.50;;;8.10;99.90;;;;;;4964286;28;20823;-71
2023/11/26 10:04:53;;;;;;;8.43;3.70;;;7.80;99.90;;;;;;4955082;28;20437;-72
2023/11/26 10:07:35;;;;;;;5.50;4.40;;;7.60;99.90;;;;;;4954951;28;20193;-71
2023/11/26 10:10:09;;;;;;;5.20;3.17;;;7.20;99.90;;;;;;4955117;28;20429;-71
2023/11/26 10:12:51;;;;;;;4.47;4.07;;;6.80;99.90;;;;;;4955096;28;20423;-71
2023/11/26 10:15:17;;;;;;;6.33;3.67;;;6.80;99.90;;;;;;4955216;28;20512;-72
2023/11/26 10:18:07;;;;;;;4.03;3.73;;;6.70;99.90;;;;;;4954537;28;20512;-71
2023/11/26 10:20:38;;;;;;;7.20;4.10;;;6.40;99.90;;;;;;4951046;29;20460;-71
2023/11/26 10:23:05;;;;;;;8.00;4.63;;;6.30;99.90;;;;;;4954816;28;20421;-72
2023/11/26 10:25:30;;;;;;;3.80;3.50;;;6.30;99.90;;;;;;4954771;28;20797;-73
2023/11/26 10:27:59;;;;;;;6.30;4.20;;;6.20;99.90;;;;;;4954394;28;20467;-73
2023/11/26 10:30:30;;;;;;;7.57;5.00;;;6.10;99.90;;;;;;4954828;28;20201;-72
2023/11/26 10:33:04;;;;;;;4.53;4.10;;;6.10;99.90;;;;;;4954204;28;20457;-72
2023/11/26 10:35:48;;;;;;;7.33;3.67;;;6.20;99.90;;;;;;4954298;29;20424;-73
2023/11/26 10:38:14;;;;;;;5.20;4.23;;;6.30;99.90;;;;;;4954329;28;20793;-72
2023/11/26 10:40:40;;;;;;;5.53;3.90;;;6.50;99.90;;;;;;4954397;28;20468;-73
2023/11/26 10:43:07;;;;;;;7.07;5.27;;;6.50;99.90;;;;;;4954414;28;20430;-73
2023/11/26 10:45:33;;;;;;;5.70;4.37;;;6.80;99.90;;;;;;4953997;28;20264;-72
2023/11/26 10:48:10;;;;;;;5.40;4.33;;;7.20;99.90;;;;;;4952821;28;20607;-72
2023/11/26 10:50:46;;;;;;;7.33;4.03;;;8.20;99.90;;;;;;4954278;28;20196;-72
2023/11/26 10:53:46;;;;;;;5.17;4.00;;;9.00;99.90;;;;;;4954015;28;20432;-72
2023/11/26 10:56:13;;;;;;;6.30;4.40;;;8.70;99.90;;;;;;4953473;28;20928;-72
2023/11/26 10:58:50;;;;;;;7.33;4.83;;;8.30;99.90;;;;;;4953698;28;20491;-73
2023/11/26 11:01:17;;;;;;;5.20;4.70;;;7.90;99.90;;;;;;4953866;28;20516;-72
2023/11/26 11:03:42;;;;;;;6.13;4.23;;;7.80;99.90;;;;;;4954285;28;20861;-72
2023/11/26 11:06:09;;;;;;;5.13;4.20;;;8.40;99.90;;;;;;4954907;28;20456;-73
2023/11/26 11:08:39;;;;;;;6.17;4.03;;;8.40;99.90;;;;;;4953675;28;20781;-73
2023/11/26 11:11:34;;;;;;;4.70;4.20;;;8.40;99.90;;;;;;4946029;28;20487;-72
2023/11/26 11:14:01;;;;;;;3.90;3.60;;;8.60;99.90;;;;;;4953664;28;20411;-72
2023/11/26 11:16:27;;;;;;;7.43;3.63;;;8.30;99.90;;;;;;4953463;28;20456;-73
2023/11/26 11:18:53;;;;;;;4.00;3.70;;;7.80;99.90;;;;;;4953996;28;20428;-72
2023/11/26 11:21:18;;;;;;;6.50;3.97;;;7.30;99.90;;;;;;4955216;28;20503;-72
2023/11/26 11:23:52;;;;;;;3.83;3.53;;;7.20;99.90;;;;;;4961497;28;20184;-73
2023/11/26 11:26:20;;;;;;;3.23;2.93;;;7.20;99.90;;;;;;4953923;28;20204;-72
2023/11/26 11:28:53;;;;;;;4.37;3.90;;;7.00;99.90;;;;;;4953659;28;20464;-72
2023/11/26 11:31:20;;;;;;;2.80;2.60;;;7.00;99.90;;;;;;4953587;28;20452;-72
2023/11/26 11:33:59;;;;;;;5.30;3.27;;;7.00;99.90;;;;;;4953761;28;20429;-73
2023/11/26 11:36:44;;;;;;;3.70;3.10;;;7.10;99.90;;;;;;4953665;28;20424;-72
2023/11/26 11:39:13;;;;;;;11.20;4.93;;;7.00;99.90;;;;;;4960703;28;20431;-72
2023/11/26 11:41:57;;;;;;;4.30;3.03;;;7.30;99.90;;;;;;4973065;28;20588;-73
2023/11/26 11:44:38;;;;;;;3.87;3.57;;;7.40;99.90;;;;;;5069189;28;20554;-70
2023/11/26 11:47:08;;;;;;;3.43;3.13;;;7.10;99.90;;;;;;5069984;28;20415;-73
2023/11/26 11:50:03;;;;;;;5.53;2.57;;;6.90;99.90;;;;;;5069191;28;20466;-72
2023/11/26 11:52:29;;;;;;;5.20;3.23;;;6.80;99.90;;;;;;5067791;28;20804;-72
2023/11/26 11:54:57;;;;;;;4.77;2.70;;;6.70;99.90;;;;;;5080190;28;20409;-73
2023/11/26 11:57:27;;;;;;;6.70;3.33;;;6.60;99.90;;;;;;5050779;28;20213;-73
2023/11/26 11:59:55;;;;;;;4.03;3.07;;;6.70;99.90;;;;;;5049128;28;20478;-73
2023/11/26 12:02:23;;;;;;;11.83;8.80;;;7.10;99.90;;;;;;5052606;28;20408;-72
2023/11/26 12:04:50;;;;;;;3.50;3.17;;;7.50;99.90;;;;;;5048947;28;20428;-73
2023/11/26 12:07:18;;;;;;;4.83;2.70;;;7.60;99.90;;;;;;5048753;28;20424;-73
2023/11/26 12:09:45;;;;;;;3.33;2.70;;;7.70;99.90;;;;;;5048942;28;20925;-73
2023/11/26 12:12:10;;;;;;;3.33;2.70;;;7.80;99.90;;;;;;5049459;28;20412;-73
2023/11/26 12:14:37;;;;;;;4.13;2.60;;;7.90;99.90;;;;;;5048889;28;20834;-73
2023/11/26 12:17:07;;;;;;;3.20;2.90;;;7.70;99.90;;;;;;5067147;28;20701;-71
2023/11/26 12:19:40;;;;;;;2.70;2.50;;;7.60;99.90;;;;;;5082089;28;20450;-71
2023/11/26 12:22:07;;;;;;;5.37;3.00;;;7.70;99.90;;;;;;5088798;28;20816;-71
2023/11/26 12:24:33;;;;;;;4.07;2.80;;;7.80;99.90;;;;;;5088671;28;20454;-72
2023/11/26 12:26:59;;;;;;;4.90;3.20;;;7.70;99.90;;;;;;5088587;28;20467;-71
2023/11/26 12:29:29;;;;;;;3.23;2.67;;;7.60;99.90;;;;;;5083057;28;20534;-71
2023/11/26 12:31:57;;;;;;;2.80;2.47;;;8.00;99.90;;;;;;5068117;28;20173;-71
2023/11/26 12:34:23;;;;;;;3.40;2.77;;;9.00;99.90;;;;;;5068417;28;20419;-72
2023/11/26 12:36:50;;;;;;;3.83;3.27;;;9.70;99.90;;;;;;5067972;28;20469;-71
2023/11/26 12:39:21;;;;;;;2.40;2.20;;;9.90;99.90;;;;;;5068181;28;20423;-71
2023/11/26 12:41:47;;;;;;;3.70;2.67;;;9.40;99.90;;;;;;5062298;28;20428;-72
2023/11/26 12:44:13;;;;;;;3.87;2.70;;;9.10;99.90;;;;;;5058134;28;20557;-71
2023/11/26 12:46:39;;;;;;;6.93;2.67;;;9.30;99.90;;;;;;5071539;28;20473;-72
2023/11/26 12:49:19;;;;;;;4.20;2.57;;;10.60;99.90;;;;;;5068522;28;20460;-71
2023/11/26 12:51:45;;;;;;;2.80;1.83;;;12.30;99.90;;;;;;5070433;28;20460;-71
2023/11/26 12:54:11;;;;;;;3.13;2.10;;;12.10;99.90;;;;;;5065083;28;20800;-71
2023/11/26 12:56:41;;;;;;;6.37;3.57;;;11.50;99.90;;;;;;5066044;28;20417;-71
2023/11/26 12:59:10;;;;;;;4.83;2.20;;;11.20;99.90;;;;;;5063760;28;20507;-71